Time;durP1;ratioP1;P1;durP2;ratioP2;P2;SDS_P1;SDS_P2;PMS_P1;PMS_P2;Temp;Humidity;BMP_temperature;BMP_pressure;BME280_temperature;BME280_humidity;BME280_pressure;Samples;Min_cycle;Max_cycle;Signal;HPM_P1;HPM_P2
2024/01/22 00:00:54;;;;;;;12.98;7.72;;;;;;;;;;4971458;28;20135;-67
2024/01/22 00:03:40;;;;;;;14.15;8.65;;;;;;;;;;4973458;28;20030;-67
2024/01/22 00:06:25;;;;;;;22.25;9.70;;;;;;;;;;4973375;28;20080;-67
2024/01/22 00:09:11;;;;;;;17.70;9.63;;;;;;;;;;4971554;28;20019;-67
2024/01/22 00:11:56;;;;;;;21.70;9.27;;;;;;;;;;4972195;28;20023;-67
2024/01/22 00:14:42;;;;;;;16.65;7.15;;;;;;;;;;4973357;28;20015;-67
2024/01/22 00:17:28;;;;;;;21.10;9.10;;;;;;;;;;4973138;28;20084;-68
2024/01/22 00:20:13;;;;;;;12.50;7.28;;;;;;;;;;4972261;28;20506;-67
2024/01/22 00:22:59;;;;;;;15.45;9.45;;;;;;;;;;4972179;28;20503;-67
2024/01/22 00:25:45;;;;;;;15.75;8.80;;;;;;;;;;4973162;28;20027;-67
2024/01/22 00:28:30;;;;;;;11.55;6.82;;;;;;;;;;4973214;28;20033;-67
2024/01/22 00:31:16;;;;;;;16.00;8.85;;;;;;;;;;4972685;28;20027;-67
2024/01/22 00:34:01;;;;;;;15.05;7.88;;;;;;;;;;4971471;28;20027;-67
2024/01/22 00:36:47;;;;;;;21.38;8.35;;;;;;;;;;4972713;28;20033;-67
2024/01/22 00:39:33;;;;;;;17.70;7.38;;;;;;;;;;4972945;28;20034;-67
2024/01/22 00:42:18;;;;;;;14.48;6.45;;;;;;;;;;4973199;28;20119;-67
2024/01/22 00:45:04;;;;;;;15.38;8.43;;;;;;;;;;4972266;28;20053;-66
2024/01/22 00:47:50;;;;;;;16.23;7.50;;;;;;;;;;4972266;28;20110;-67
2024/01/22 00:50:35;;;;;;;12.48;7.28;;;;;;;;;;4972220;28;20023;-67
2024/01/22 00:53:21;;;;;;;12.23;7.18;;;;;;;;;;4972502;28;20373;-67
2024/01/22 00:56:07;;;;;;;10.88;7.00;;;;;;;;;;4970364;28;20034;-67
2024/01/22 00:58:52;;;;;;;14.88;6.55;;;;;;;;;;4971690;28;20440;-67
2024/01/22 01:01:38;;;;;;;11.23;6.70;;;;;;;;;;4971448;28;20055;-67
2024/01/22 01:04:26;;;;;;;10.23;6.53;;;;;;;;;;4972316;28;20033;-67
2024/01/22 01:07:12;;;;;;;14.18;7.25;;;;;;;;;;4972501;28;20053;-67
2024/01/22 01:09:58;;;;;;;12.45;7.10;;;;;;;;;;4971421;28;20027;-67
2024/01/22 01:12:44;;;;;;;11.98;6.75;;;;;;;;;;4972461;28;20023;-67
2024/01/22 01:15:29;;;;;;;12.00;6.97;;;;;;;;;;4971997;28;20022;-67
2024/01/22 01:18:15;;;;;;;11.80;6.68;;;;;;;;;;4972378;28;20025;-67
2024/01/22 01:21:00;;;;;;;11.00;6.80;;;;;;;;;;4971495;28;20495;-67
2024/01/22 01:23:46;;;;;;;21.02;7.38;;;;;;;;;;4972339;28;20115;-67
2024/01/22 01:26:32;;;;;;;9.27;6.43;;;;;;;;;;4971964;28;20111;-67
2024/01/22 01:29:17;;;;;;;13.48;6.97;;;;;;;;;;4972058;28;20027;-67
2024/01/22 01:32:03;;;;;;;9.23;6.57;;;;;;;;;;4970835;28;20496;-67
2024/01/22 01:34:49;;;;;;;10.07;6.65;;;;;;;;;;4971835;28;20106;-67
2024/01/22 01:37:34;;;;;;;14.80;6.35;;;;;;;;;;4971486;28;20023;-67
2024/01/22 01:40:21;;;;;;;12.23;6.90;;;;;;;;;;4971047;28;20030;-67
2024/01/22 01:43:06;;;;;;;12.20;6.30;;;;;;;;;;4971857;28;20492;-67
2024/01/22 01:45:52;;;;;;;12.77;7.32;;;;;;;;;;4971507;28;20038;-67
2024/01/22 01:48:38;;;;;;;10.57;5.75;;;;;;;;;;4972032;28;20407;-67
2024/01/22 01:51:24;;;;;;;15.65;6.95;;;;;;;;;;4986122;28;20534;-67
2024/01/22 01:54:11;;;;;;;22.67;7.07;;;;;;;;;;4973964;28;20034;-67
2024/01/22 01:56:57;;;;;;;13.70;6.03;;;;;;;;;;4971498;28;20023;-67
2024/01/22 01:59:46;;;;;;;13.48;6.07;;;;;;;;;;4971355;28;20492;-67
2024/01/22 02:02:31;;;;;;;13.73;6.07;;;;;;;;;;4971783;28;20023;-67
2024/01/22 02:05:17;;;;;;;12.10;6.63;;;;;;;;;;4970996;28;20019;-67
2024/01/22 02:08:03;;;;;;;14.57;7.25;;;;;;;;;;4975980;28;20030;-67
2024/01/22 02:10:49;;;;;;;10.70;7.43;;;;;;;;;;4974760;28;20068;-67
2024/01/22 02:13:34;;;;;;;9.85;6.82;;;;;;;;;;4973427;28;20483;-67
2024/01/22 02:16:20;;;;;;;11.10;7.18;;;;;;;;;;4974882;28;20486;-67
2024/01/22 02:19:06;;;;;;;9.60;6.13;;;;;;;;;;4974692;28;20373;-67
2024/01/22 02:21:52;;;;;;;11.00;6.70;;;;;;;;;;4972775;28;20023;-67
2024/01/22 02:25:34;;;;;;;10.45;6.78;;;;;;;;;;4974645;28;20084;-67
2024/01/22 02:28:19;;;;;;;11.40;6.82;;;;;;;;;;4971770;28;20030;-67
2024/01/22 02:31:07;;;;;;;13.60;7.60;;;;;;;;;;4973995;28;20027;-68
2024/01/22 02:33:52;;;;;;;13.38;7.15;;;;;;;;;;4973540;28;20396;-67
2024/01/22 02:36:38;;;;;;;10.68;7.72;;;;;;;;;;4974076;28;20058;-68
2024/01/22 02:39:24;;;;;;;12.95;6.78;;;;;;;;;;4969096;28;20400;-68
2024/01/22 02:42:09;;;;;;;18.95;8.13;;;;;;;;;;4962416;28;20492;-68
2024/01/22 02:44:55;;;;;;;12.13;7.53;;;;;;;;;;4973557;28;20110;-68
2024/01/22 02:47:41;;;;;;;14.88;6.85;;;;;;;;;;4966373;28;20027;-67
2024/01/22 02:50:26;;;;;;;14.20;7.47;;;;;;;;;;4964240;28;20023;-68
2024/01/22 02:53:12;;;;;;;13.73;7.18;;;;;;;;;;4968145;28;20028;-67
2024/01/22 02:55:57;;;;;;;13.55;7.47;;;;;;;;;;4971560;28;20399;-67
2024/01/22 02:58:43;;;;;;;10.85;6.65;;;;;;;;;;4962464;28;20030;-67
2024/01/22 03:01:29;;;;;;;13.38;7.32;;;;;;;;;;4970745;28;20111;-68
2024/01/22 03:04:14;;;;;;;26.17;7.88;;;;;;;;;;4963071;28;20038;-68
2024/01/22 03:07:00;;;;;;;13.15;6.75;;;;;;;;;;4967312;28;20030;-68
2024/01/22 03:09:46;;;;;;;11.43;6.03;;;;;;;;;;4955330;29;20031;-67
2024/01/22 03:12:31;;;;;;;12.95;6.38;;;;;;;;;;4966514;28;20032;-68
2024/01/22 03:15:17;;;;;;;15.55;7.97;;;;;;;;;;4954422;28;20057;-67
2024/01/22 03:18:03;;;;;;;12.27;8.57;;;;;;;;;;4959837;28;20062;-67
2024/01/22 03:20:48;;;;;;;10.95;6.65;;;;;;;;;;4960957;28;20029;-68
2024/01/22 03:23:34;;;;;;;10.20;7.38;;;;;;;;;;4973128;28;20457;-67
2024/01/22 03:26:20;;;;;;;8.63;6.25;;;;;;;;;;4976275;28;20049;-68
2024/01/22 03:29:06;;;;;;;14.82;6.80;;;;;;;;;;4960123;28;20027;-68
2024/01/22 03:31:53;;;;;;;11.73;6.05;;;;;;;;;;4960763;28;20039;-68
2024/01/22 03:34:39;;;;;;;16.88;6.85;;;;;;;;;;4958421;28;20081;-68
2024/01/22 03:37:24;;;;;;;11.38;5.38;;;;;;;;;;4954073;29;20548;-68
2024/01/22 03:40:10;;;;;;;12.65;8.52;;;;;;;;;;4971236;28;20050;-68
2024/01/22 03:42:56;;;;;;;13.32;5.35;;;;;;;;;;4975941;28;20065;-67
2024/01/22 03:45:41;;;;;;;12.32;6.57;;;;;;;;;;4955667;28;20107;-68
2024/01/22 03:48:27;;;;;;;13.48;7.85;;;;;;;;;;4953220;29;20031;-68
2024/01/22 03:51:13;;;;;;;10.90;6.78;;;;;;;;;;4954427;28;20019;-68
2024/01/22 03:53:58;;;;;;;16.02;6.75;;;;;;;;;;4960082;28;20062;-68
2024/01/22 03:56:44;;;;;;;12.35;7.05;;;;;;;;;;4963473;28;20026;-68
2024/01/22 03:59:30;;;;;;;16.17;7.85;;;;;;;;;;4956588;28;20038;-68
2024/01/22 04:02:15;;;;;;;10.70;6.30;;;;;;;;;;4956377;28;20038;-67
2024/01/22 04:05:01;;;;;;;8.48;6.40;;;;;;;;;;4973020;28;20022;-68
2024/01/22 04:07:47;;;;;;;11.13;6.22;;;;;;;;;;4973330;28;20110;-68
2024/01/22 04:10:32;;;;;;;11.70;5.80;;;;;;;;;;4969812;28;20027;-68
2024/01/22 04:13:18;;;;;;;10.25;5.65;;;;;;;;;;4953228;28;20031;-68
2024/01/22 04:16:04;;;;;;;11.98;5.78;;;;;;;;;;4966171;28;20491;-68
2024/01/22 04:18:50;;;;;;;8.48;5.03;;;;;;;;;;4972776;28;20034;-68
2024/01/22 04:21:44;;;;;;;8.32;5.32;;;;;;;;;;4970182;28;20034;-68
2024/01/22 04:24:29;;;;;;;10.45;5.30;;;;;;;;;;4966463;28;20042;-68
2024/01/22 04:27:15;;;;;;;9.73;4.93;;;;;;;;;;4967870;28;20031;-68
2024/01/22 04:30:01;;;;;;;8.68;5.35;;;;;;;;;;4974098;28;20023;-68
2024/01/22 04:32:46;;;;;;;8.07;5.15;;;;;;;;;;4971191;28;20107;-68
2024/01/22 04:35:32;;;;;;;6.93;4.80;;;;;;;;;;4965162;28;20502;-67
2024/01/22 04:38:18;;;;;;;14.00;5.63;;;;;;;;;;4966052;28;20027;-68
2024/01/22 04:41:03;;;;;;;8.65;5.40;;;;;;;;;;4972766;28;20373;-68
2024/01/22 04:43:49;;;;;;;10.40;4.72;;;;;;;;;;4956711;28;20035;-67
2024/01/22 04:46:35;;;;;;;9.07;5.82;;;;;;;;;;4953172;28;20030;-68
2024/01/22 04:49:20;;;;;;;8.80;4.82;;;;;;;;;;4971913;28;20084;-68
2024/01/22 04:52:06;;;;;;;12.73;4.40;;;;;;;;;;4972087;28;20101;-68
2024/01/22 04:54:51;;;;;;;9.65;5.90;;;;;;;;;;4967900;28;20027;-67
2024/01/22 04:57:37;;;;;;;11.52;5.38;;;;;;;;;;4960028;28;20027;-68
2024/01/22 05:00:23;;;;;;;9.82;5.40;;;;;;;;;;4971673;28;20495;-68
2024/01/22 05:03:08;;;;;;;10.52;4.80;;;;;;;;;;4971676;28;20126;-68
2024/01/22 05:05:54;;;;;;;11.82;5.15;;;;;;;;;;4972199;28;20029;-68
2024/01/22 05:08:40;;;;;;;5.32;4.57;;;;;;;;;;4961229;28;20047;-68
2024/01/22 05:11:26;;;;;;;6.30;4.68;;;;;;;;;;4963994;28;20027;-68
2024/01/22 05:14:12;;;;;;;6.47;3.75;;;;;;;;;;4958296;28;20450;-68
2024/01/22 05:16:58;;;;;;;10.38;4.57;;;;;;;;;;4969087;28;20104;-68
2024/01/22 05:19:43;;;;;;;9.70;5.57;;;;;;;;;;4955719;28;20093;-69
2024/01/22 05:22:29;;;;;;;11.52;5.32;;;;;;;;;;4954056;28;20100;-68
2024/01/22 05:25:15;;;;;;;7.93;4.30;;;;;;;;;;4965661;28;20038;-68
2024/01/22 05:28:00;;;;;;;11.70;5.13;;;;;;;;;;4956850;28;20164;-68
2024/01/22 05:30:46;;;;;;;9.50;5.18;;;;;;;;;;4952495;29;20481;-68
2024/01/22 05:33:32;;;;;;;10.40;5.57;;;;;;;;;;4956034;28;22826;-67
2024/01/22 05:36:17;;;;;;;13.38;5.63;;;;;;;;;;4960978;28;20019;-68
2024/01/22 05:39:05;;;;;;;7.13;4.30;;;;;;;;;;4967253;28;20027;-68
2024/01/22 05:41:50;;;;;;;12.63;4.40;;;;;;;;;;4954861;28;20023;-68
2024/01/22 05:44:36;;;;;;;6.78;4.47;;;;;;;;;;4958024;28;20051;-68
2024/01/22 05:47:21;;;;;;;7.90;3.97;;;;;;;;;;4970356;28;20029;-67
2024/01/22 05:50:08;;;;;;;14.55;4.10;;;;;;;;;;4966610;28;20407;-68
2024/01/22 05:52:54;;;;;;;6.75;4.03;;;;;;;;;;4972968;28;20077;-68
2024/01/22 05:55:40;;;;;;;8.40;5.05;;;;;;;;;;4971162;28;20518;-68
2024/01/22 05:58:25;;;;;;;10.75;4.85;;;;;;;;;;4974678;28;20110;-68
2024/01/22 06:01:18;;;;;;;13.25;4.90;;;;;;;;;;4970649;28;20496;-68
2024/01/22 06:04:04;;;;;;;7.85;4.28;;;;;;;;;;4970025;28;20061;-68
2024/01/22 06:06:50;;;;;;;11.10;4.93;;;;;;;;;;4973811;28;20408;-68
2024/01/22 06:09:37;;;;;;;9.82;5.03;;;;;;;;;;4963597;28;20084;-68
2024/01/22 06:12:23;;;;;;;6.75;3.55;;;;;;;;;;4970955;28;20026;-68
2024/01/22 06:15:09;;;;;;;13.30;4.85;;;;;;;;;;4957565;28;20023;-68
2024/01/22 06:17:55;;;;;;;8.38;4.00;;;;;;;;;;4960778;28;20039;-68
2024/01/22 06:20:40;;;;;;;7.53;5.03;;;;;;;;;;4954675;28;20035;-69
2024/01/22 06:23:26;;;;;;;18.52;4.93;;;;;;;;;;4952189;29;20031;-68
2024/01/22 06:26:12;;;;;;;7.05;3.45;;;;;;;;;;4965853;28;20492;-68
2024/01/22 06:28:57;;;;;;;5.18;3.42;;;;;;;;;;4970615;28;20030;-68
2024/01/22 06:31:43;;;;;;;7.95;4.00;;;;;;;;;;4973239;28;20022;-68
2024/01/22 06:34:28;;;;;;;10.35;4.45;;;;;;;;;;4964503;28;20023;-68
2024/01/22 06:37:15;;;;;;;6.78;4.05;;;;;;;;;;4963709;28;20065;-68
2024/01/22 06:40:01;;;;;;;7.55;4.32;;;;;;;;;;4970779;28;20439;-68
2024/01/22 06:42:47;;;;;;;8.40;4.70;;;;;;;;;;4967652;28;20019;-68
2024/01/22 06:45:33;;;;;;;9.93;3.75;;;;;;;;;;4957176;28;20030;-67
2024/01/22 06:48:18;;;;;;;9.20;4.55;;;;;;;;;;4955731;28;20389;-67
2024/01/22 06:51:04;;;;;;;12.70;4.82;;;;;;;;;;4960798;28;20026;-68
2024/01/22 06:53:50;;;;;;;3.95;3.55;;;;;;;;;;4972136;28;20019;-68
2024/01/22 06:56:35;;;;;;;6.50;3.65;;;;;;;;;;4976395;28;20057;-68
2024/01/22 06:59:21;;;;;;;12.13;4.13;;;;;;;;;;4971735;28;20069;-69
2024/01/22 07:02:07;;;;;;;9.38;4.07;;;;;;;;;;4964301;28;20066;-69
2024/01/22 07:04:55;;;;;;;7.57;3.42;;;;;;;;;;4968330;28;20029;-69
2024/01/22 07:07:41;;;;;;;7.00;3.92;;;;;;;;;;4955102;29;20110;-69
2024/01/22 07:10:27;;;;;;;7.18;3.33;;;;;;;;;;4964846;28;20029;-69
2024/01/22 07:13:12;;;;;;;9.07;3.75;;;;;;;;;;4974070;28;20423;-68
2024/01/22 07:15:58;;;;;;;4.75;3.03;;;;;;;;;;4974349;28;20101;-69
2024/01/22 07:18:44;;;;;;;6.68;2.70;;;;;;;;;;4975119;28;20110;-68
2024/01/22 07:21:30;;;;;;;6.35;3.15;;;;;;;;;;4970745;28;20531;-68
2024/01/22 07:24:15;;;;;;;13.73;5.10;;;;;;;;;;4974073;28;20403;-68
2024/01/22 07:27:01;;;;;;;6.13;3.25;;;;;;;;;;4976759;28;20041;-69
2024/01/22 07:29:47;;;;;;;16.42;4.63;;;;;;;;;;4954241;29;20031;-69
2024/01/22 07:32:34;;;;;;;15.48;4.40;;;;;;;;;;4953271;29;20031;-69
2024/01/22 07:35:19;;;;;;;7.22;3.92;;;;;;;;;;4954019;29;20516;-69
2024/01/22 07:38:05;;;;;;;9.85;3.85;;;;;;;;;;4954155;29;20032;-69
2024/01/22 07:40:51;;;;;;;5.55;3.25;;;;;;;;;;4953537;29;20031;-69
2024/01/22 07:43:37;;;;;;;7.85;3.28;;;;;;;;;;4969927;28;20084;-69
2024/01/22 07:46:22;;;;;;;10.50;3.70;;;;;;;;;;5033772;28;20041;-69
2024/01/22 07:49:08;;;;;;;10.80;2.85;;;;;;;;;;4954230;28;20031;-69
2024/01/22 07:51:54;;;;;;;22.65;4.47;;;;;;;;;;4953474;29;20507;-69
2024/01/22 07:54:39;;;;;;;19.42;3.75;;;;;;;;;;4953032;29;20027;-69
2024/01/22 07:57:25;;;;;;;14.50;3.03;;;;;;;;;;4953844;28;20023;-69
2024/01/22 08:00:11;;;;;;;15.93;3.28;;;;;;;;;;4952679;29;20042;-69
2024/01/22 08:02:57;;;;;;;9.40;3.88;;;;;;;;;;4966939;28;20100;-69
2024/01/22 08:05:42;;;;;;;14.00;3.72;;;;;;;;;;4953222;28;20024;-69
2024/01/22 08:08:28;;;;;;;15.40;4.03;;;;;;;;;;4953250;28;20061;-69
2024/01/22 08:11:13;;;;;;;14.15;3.13;;;;;;;;;;4968542;28;20030;-69
2024/01/22 08:13:59;;;;;;;15.70;3.75;;;;;;;;;;4954613;28;20038;-68
2024/01/22 08:16:46;;;;;;;14.40;4.22;;;;;;;;;;4953180;29;20102;-69
2024/01/22 08:19:33;;;;;;;15.23;4.55;;;;;;;;;;4951525;29;20480;-69
2024/01/22 08:22:19;;;;;;;13.57;4.45;;;;;;;;;;4951346;29;20035;-69
2024/01/22 08:25:05;;;;;;;14.93;3.28;;;;;;;;;;4952568;29;20028;-70
2024/01/22 08:27:51;;;;;;;20.90;5.03;;;;;;;;;;4976591;28;20037;-69
2024/01/22 08:30:37;;;;;;;14.68;3.22;;;;;;;;;;4971077;28;20476;-69
2024/01/22 08:33:23;;;;;;;11.10;3.80;;;;;;;;;;4972175;28;20412;-69
2024/01/22 08:36:08;;;;;;;19.73;3.95;;;;;;;;;;4975276;28;20019;-69
2024/01/22 08:38:54;;;;;;;35.60;3.70;;;;;;;;;;4972471;28;20030;-69
2024/01/22 08:41:39;;;;;;;15.15;3.38;;;;;;;;;;4971361;28;20061;-69
2024/01/22 08:44:25;;;;;;;27.52;3.70;;;;;;;;;;4971917;28;20498;-69
2024/01/22 08:47:11;;;;;;;28.38;5.70;;;;;;;;;;4971520;28;20027;-69
2024/01/22 08:49:56;;;;;;;27.85;3.78;;;;;;;;;;4972030;28;20029;-68
2024/01/22 08:52:45;;;;;;;15.07;3.53;;;;;;;;;;4973321;28;20023;-69
2024/01/22 08:55:30;;;;;;;25.52;4.63;;;;;;;;;;4971206;28;20026;-69
2024/01/22 08:58:16;;;;;;;28.60;4.75;;;;;;;;;;4972120;28;20031;-68
2024/01/22 09:01:05;;;;;;;27.88;5.00;;;;;;;;;;4952860;28;20041;-69
2024/01/22 09:03:50;;;;;;;28.77;5.53;;;;;;;;;;5090975;23;20402;-73
2024/01/22 09:06:36;;;;;;;31.80;5.07;;;;;;;;;;5053557;28;20475;-73
2024/01/22 09:09:22;;;;;;;15.73;4.50;;;;;;;;;;5063292;28;20036;-73
2024/01/22 09:12:08;;;;;;;36.25;5.13;;;;;;;;;;5055221;28;20036;-73
2024/01/22 09:14:53;;;;;;;31.25;5.35;;;;;;;;;;5071183;28;20567;-73
2024/01/22 09:17:39;;;;;;;25.33;5.78;;;;;;;;;;5072132;28;20086;-73
2024/01/22 09:20:25;;;;;;;35.72;6.85;;;;;;;;;;5058582;28;20111;-73
2024/01/22 09:23:11;;;;;;;28.77;6.68;;;;;;;;;;5073648;28;20024;-73
2024/01/22 09:25:57;;;;;;;32.55;5.80;;;;;;;;;;5071507;28;20021;-73
2024/01/22 09:28:42;;;;;;;38.22;6.13;;;;;;;;;;5072986;28;20054;-74
2024/01/22 09:31:29;;;;;;;37.03;6.32;;;;;;;;;;5068476;28;20101;-73
2024/01/22 09:34:15;;;;;;;27.08;5.45;;;;;;;;;;5065312;28;20031;-72
2024/01/22 09:37:00;;;;;;;44.58;8.27;;;;;;;;;;5051817;28;20020;-72
2024/01/22 09:39:46;;;;;;;38.95;5.97;;;;;;;;;;5057258;28;20094;-73
2024/01/22 09:42:32;;;;;;;44.72;6.63;;;;;;;;;;5073156;28;20028;-73
2024/01/22 09:45:19;;;;;;;31.23;6.43;;;;;;;;;;5054813;28;20025;-73
2024/01/22 09:48:05;;;;;;;36.47;6.45;;;;;;;;;;5031998;28;20026;-73
2024/01/22 09:50:53;;;;;;;34.63;7.47;;;;;;;;;;5044507;28;20025;-73
2024/01/22 09:53:41;;;;;;;36.95;6.20;;;;;;;;;;5041335;28;20028;-73
2024/01/22 09:56:27;;;;;;;44.60;7.35;;;;;;;;;;5051538;28;20413;-73
2024/01/22 09:59:19;;;;;;;39.95;6.30;;;;;;;;;;5060778;28;20053;-73
2024/01/22 10:02:05;;;;;;;31.13;5.78;;;;;;;;;;5050649;28;20029;-73
2024/01/22 10:04:51;;;;;;;30.00;5.82;;;;;;;;;;5043261;28;20033;-73
2024/01/22 10:07:37;;;;;;;21.10;5.63;;;;;;;;;;5031285;28;20409;-73
2024/01/22 10:10:22;;;;;;;38.97;5.68;;;;;;;;;;5038742;28;20025;-73
2024/01/22 10:13:08;;;;;;;35.95;5.53;;;;;;;;;;5052802;28;20056;-73
2024/01/22 10:15:54;;;;;;;30.73;7.07;;;;;;;;;;5047370;28;20506;-75
2024/01/22 10:18:58;;;;;;;42.47;7.45;;;;;;;;;;5049700;28;20032;-72
2024/01/22 10:21:43;;;;;;;47.63;6.78;;;;;;;;;;5047458;28;20035;-73
2024/01/22 10:24:30;;;;;;;58.40;7.40;;;;;;;;;;5047410;28;20521;-72
2024/01/22 10:27:16;;;;;;;38.53;7.38;;;;;;;;;;5043567;28;20029;-73
2024/01/22 10:30:12;;;;;;;23.38;4.88;;;;;;;;;;5051609;28;20032;-73
2024/01/22 10:33:13;;;;;;;49.60;6.75;;;;;;;;;;5050064;28;20091;-72
2024/01/22 10:36:17;;;;;;;35.65;7.15;;;;;;;;;;5047153;28;20478;-72
2024/01/22 10:39:04;;;;;;;38.45;6.78;;;;;;;;;;5047089;28;20108;-73
2024/01/22 10:41:49;;;;;;;37.30;7.97;;;;;;;;;;5042745;28;20032;-73
2024/01/22 10:44:39;;;;;;;36.45;7.20;;;;;;;;;;5047752;28;20018;-72
2024/01/22 10:47:25;;;;;;;45.88;7.88;;;;;;;;;;5053303;28;20483;-71
2024/01/22 10:50:10;;;;;;;39.60;8.40;;;;;;;;;;5047087;28;20525;-72
2024/01/22 10:52:57;;;;;;;49.72;6.55;;;;;;;;;;5046873;28;20556;-72
2024/01/22 10:55:59;;;;;;;40.20;6.22;;;;;;;;;;5046284;28;20059;-71
2024/01/22 10:58:45;;;;;;;39.72;6.45;;;;;;;;;;5039602;28;20040;-72
2024/01/22 11:01:31;;;;;;;49.80;7.72;;;;;;;;;;5050742;28;20062;-73
2024/01/22 11:04:20;;;;;;;37.60;7.78;;;;;;;;;;5055084;28;20394;-72
2024/01/22 11:07:06;;;;;;;57.58;6.93;;;;;;;;;;5054342;28;20055;-73
2024/01/22 11:09:53;;;;;;;40.55;8.05;;;;;;;;;;5066685;28;20040;-72
2024/01/22 11:12:43;;;;;;;50.47;7.93;;;;;;;;;;5054817;28;20029;-72
2024/01/22 11:15:28;;;;;;;33.83;6.68;;;;;;;;;;5054549;28;20021;-72
2024/01/22 11:18:14;;;;;;;36.55;6.75;;;;;;;;;;5054197;28;20491;-72
2024/01/22 11:21:19;;;;;;;31.40;6.00;;;;;;;;;;5054625;28;20029;-72
2024/01/22 11:24:19;;;;;;;39.05;6.63;;;;;;;;;;5053999;28;20032;-72
2024/01/22 11:27:05;;;;;;;47.95;6.88;;;;;;;;;;5055021;28;20033;-72
2024/01/22 11:29:51;;;;;;;26.85;4.80;;;;;;;;;;5054144;28;20108;-72
2024/01/22 11:32:41;;;;;;;44.28;6.35;;;;;;;;;;5055177;28;20025;-72
2024/01/22 11:35:37;;;;;;;33.90;5.97;;;;;;;;;;5054458;28;20458;-72
2024/01/22 11:38:41;;;;;;;38.97;7.22;;;;;;;;;;5054488;28;20604;-72
2024/01/22 11:41:32;;;;;;;26.65;5.97;;;;;;;;;;5054409;28;20028;-72
2024/01/22 11:44:17;;;;;;;45.65;7.57;;;;;;;;;;5054441;28;20025;-72
2024/01/22 11:47:10;;;;;;;29.95;6.22;;;;;;;;;;5054130;28;20017;-72
2024/01/22 11:50:05;;;;;;;47.92;7.93;;;;;;;;;;5053591;28;20025;-72
2024/01/22 11:52:50;;;;;;;32.03;6.72;;;;;;;;;;5040892;28;20029;-72
2024/01/22 11:55:36;;;;;;;36.88;6.18;;;;;;;;;;5054980;28;20029;-72
2024/01/22 11:58:22;;;;;;;30.45;6.70;;;;;;;;;;5054746;28;20087;-72
2024/01/22 12:01:09;;;;;;;52.00;8.40;;;;;;;;;;5054502;28;20060;-73
2024/01/22 12:03:55;;;;;;;43.83;7.13;;;;;;;;;;5053453;28;20061;-72
2024/01/22 12:06:50;;;;;;;30.40;6.10;;;;;;;;;;5054920;28;20037;-72
2024/01/22 12:09:35;;;;;;;38.75;6.45;;;;;;;;;;5054252;28;20082;-72
2024/01/22 12:12:21;;;;;;;29.45;5.07;;;;;;;;;;5054031;28;20060;-72
2024/01/22 12:15:07;;;;;;;36.97;9.02;;;;;;;;;;5054263;28;20031;-72
2024/01/22 12:17:53;;;;;;;27.13;5.65;;;;;;;;;;5054499;28;20079;-73
2024/01/22 12:20:39;;;;;;;27.77;6.15;;;;;;;;;;5053548;28;20501;-73
2024/01/22 12:23:29;;;;;;;38.58;5.80;;;;;;;;;;5052339;28;20155;-72
2024/01/22 12:26:23;;;;;;;42.55;6.80;;;;;;;;;;5039275;28;20037;-72
2024/01/22 12:29:22;;;;;;;21.90;6.10;;;;;;;;;;5052628;28;20104;-72
2024/01/22 12:32:09;;;;;;;28.63;4.93;;;;;;;;;;5052600;28;20060;-71
2024/01/22 12:34:59;;;;;;;24.15;6.53;;;;;;;;;;5054041;28;20095;-72
2024/01/22 12:37:44;;;;;;;25.92;5.32;;;;;;;;;;5053169;28;20016;-72
2024/01/22 12:40:30;;;;;;;34.40;5.97;;;;;;;;;;5067227;28;20020;-73
2024/01/22 12:43:16;;;;;;;21.80;5.28;;;;;;;;;;5053353;28;20053;-72
2024/01/22 12:46:10;;;;;;;48.05;7.82;;;;;;;;;;5054147;28;20024;-72
2024/01/22 12:48:56;;;;;;;31.35;4.95;;;;;;;;;;5053314;28;20057;-72
2024/01/22 12:51:42;;;;;;;31.02;5.50;;;;;;;;;;5053425;28;20032;-72
2024/01/22 12:54:28;;;;;;;22.58;5.65;;;;;;;;;;5053717;28;20021;-72
2024/01/22 12:57:13;;;;;;;27.95;5.68;;;;;;;;;;5053902;28;20029;-72
2024/01/22 12:59:59;;;;;;;29.98;5.05;;;;;;;;;;5059676;28;20542;-72
2024/01/22 13:02:45;;;;;;;24.42;6.07;;;;;;;;;;5072304;28;20111;-72
2024/01/22 13:05:30;;;;;;;24.20;5.10;;;;;;;;;;5073892;28;20028;-72
2024/01/22 13:08:18;;;;;;;26.58;5.55;;;;;;;;;;5057460;28;20152;-72
2024/01/22 13:11:03;;;;;;;29.70;6.00;;;;;;;;;;5066548;28;20502;-73
2024/01/22 13:13:50;;;;;;;25.83;5.13;;;;;;;;;;5051913;28;20045;-72
2024/01/22 13:16:35;;;;;;;21.98;5.28;;;;;;;;;;5039093;28;20020;-72
2024/01/22 13:19:21;;;;;;;36.22;4.95;;;;;;;;;;5053207;28;20547;-72
2024/01/22 13:22:07;;;;;;;41.90;5.85;;;;;;;;;;5053469;28;20477;-72
2024/01/22 13:27:06;;;;;;;39.95;6.22;;;;;;;;;;5112069;27;20328;-70
2024/01/22 13:29:51;;;;;;;33.90;5.07;;;;;;;;;;5110200;28;20120;-71
2024/01/22 13:32:37;;;;;;;28.85;4.68;;;;;;;;;;5111376;28;20053;-71
2024/01/22 13:35:23;;;;;;;28.20;5.47;;;;;;;;;;5089587;28;20108;-71
2024/01/22 13:38:09;;;;;;;56.35;7.55;;;;;;;;;;5083137;28;20028;-71
2024/01/22 13:40:54;;;;;;;25.30;5.63;;;;;;;;;;5088967;28;20066;-71
2024/01/22 13:43:42;;;;;;;35.90;5.72;;;;;;;;;;5089368;28;20020;-71
2024/01/22 13:46:27;;;;;;;33.67;4.53;;;;;;;;;;5088983;28;20027;-71
2024/01/22 13:49:14;;;;;;;27.27;5.50;;;;;;;;;;5089376;28;20055;-71
2024/01/22 13:52:04;;;;;;;30.98;5.43;;;;;;;;;;5075184;28;20398;-71
2024/01/22 13:54:49;;;;;;;27.45;5.25;;;;;;;;;;5089267;28;20035;-71
2024/01/22 13:57:35;;;;;;;38.88;6.70;;;;;;;;;;5075994;28;20398;-71
2024/01/22 14:00:21;;;;;;;29.58;5.43;;;;;;;;;;5089834;28;20107;-71
2024/01/22 14:03:07;;;;;;;21.45;4.97;;;;;;;;;;5091165;28;20024;-70
2024/01/22 14:05:52;;;;;;;27.77;5.32;;;;;;;;;;5089721;28;20106;-71
2024/01/22 14:08:38;;;;;;;31.33;5.05;;;;;;;;;;5088418;28;20520;-71
2024/01/22 14:11:23;;;;;;;26.17;6.22;;;;;;;;;;5089947;28;20457;-71
2024/01/22 14:14:10;;;;;;;16.85;4.28;;;;;;;;;;5082063;28;20021;-71
2024/01/22 14:16:56;;;;;;;26.20;4.30;;;;;;;;;;5073072;28;20078;-71
2024/01/22 14:19:42;;;;;;;27.38;5.32;;;;;;;;;;5089269;28;20058;-70
2024/01/22 14:22:27;;;;;;;32.95;5.28;;;;;;;;;;5090481;28;20032;-70
2024/01/22 14:25:13;;;;;;;31.48;5.18;;;;;;;;;;5090184;28;20033;-71
2024/01/22 14:27:59;;;;;;;21.98;3.58;;;;;;;;;;5091053;28;20028;-71
2024/01/22 14:30:45;;;;;;;26.13;5.32;;;;;;;;;;5088342;28;20137;-71
2024/01/22 14:33:30;;;;;;;23.45;4.25;;;;;;;;;;5075450;28;20047;-70
2024/01/22 14:36:17;;;;;;;32.60;4.07;;;;;;;;;;5083502;28;20038;-71
2024/01/22 14:39:02;;;;;;;24.02;4.97;;;;;;;;;;5057177;28;20119;-70
2024/01/22 14:41:48;;;;;;;22.48;4.55;;;;;;;;;;5065040;28;20033;-71
2024/01/22 14:44:34;;;;;;;24.65;4.63;;;;;;;;;;5056173;28;20054;-70
2024/01/22 14:47:19;;;;;;;31.25;5.68;;;;;;;;;;5055942;28;20112;-70
2024/01/22 14:50:05;;;;;;;26.35;5.57;;;;;;;;;;5056410;28;20021;-71
2024/01/22 14:52:51;;;;;;;19.70;5.53;;;;;;;;;;5040826;28;20032;-70
2024/01/22 14:55:36;;;;;;;24.65;5.15;;;;;;;;;;5055639;28;20028;-70
2024/01/22 14:58:22;;;;;;;26.83;4.90;;;;;;;;;;5056742;28;20056;-71
2024/01/22 15:01:08;;;;;;;23.90;4.75;;;;;;;;;;5048667;28;20035;-71
2024/01/22 15:03:53;;;;;;;34.35;6.10;;;;;;;;;;5056048;28;20096;-71
2024/01/22 15:06:39;;;;;;;23.52;4.38;;;;;;;;;;5055148;28;20029;-71
2024/01/22 15:09:25;;;;;;;28.42;5.10;;;;;;;;;;5054109;28;20409;-71
2024/01/22 15:12:11;;;;;;;30.33;4.10;;;;;;;;;;5056620;28;20393;-71
2024/01/22 15:14:57;;;;;;;28.15;4.45;;;;;;;;;;5041261;28;20029;-71
2024/01/22 15:17:42;;;;;;;28.00;5.90;;;;;;;;;;5056117;28;20017;-70
2024/01/22 15:20:28;;;;;;;31.80;5.13;;;;;;;;;;5056576;28;20113;-71
2024/01/22 15:23:14;;;;;;;22.23;5.55;;;;;;;;;;5055814;28;20028;-71
2024/01/22 15:26:01;;;;;;;27.65;6.47;;;;;;;;;;5056147;28;20509;-71
2024/01/22 15:28:47;;;;;;;24.85;4.72;;;;;;;;;;5041958;28;20040;-71
2024/01/22 15:31:35;;;;;;;26.75;5.20;;;;;;;;;;5055465;28;20052;-71
2024/01/22 15:34:20;;;;;;;33.72;5.13;;;;;;;;;;5041221;28;20474;-71
2024/01/22 15:37:06;;;;;;;27.73;5.38;;;;;;;;;;5055710;28;20090;-71
2024/01/22 15:39:52;;;;;;;23.00;5.03;;;;;;;;;;5055335;28;20133;-70
2024/01/22 15:42:38;;;;;;;30.35;4.70;;;;;;;;;;5056624;28;20229;-71
2024/01/22 15:45:24;;;;;;;21.58;3.75;;;;;;;;;;5056074;28;20025;-71
2024/01/22 15:48:10;;;;;;;44.13;6.45;;;;;;;;;;5040181;28;20055;-70
2024/01/22 15:50:55;;;;;;;18.17;4.45;;;;;;;;;;5054892;28;20395;-70
2024/01/22 15:53:41;;;;;;;27.15;4.93;;;;;;;;;;5055230;28;20096;-70
2024/01/22 15:56:26;;;;;;;35.17;5.93;;;;;;;;;;5055479;28;20021;-71
2024/01/22 15:59:12;;;;;;;30.95;5.30;;;;;;;;;;5055460;28;20025;-71
2024/01/22 16:01:58;;;;;;;25.92;4.22;;;;;;;;;;5055507;28;20025;-71
2024/01/22 16:04:43;;;;;;;26.30;4.30;;;;;;;;;;5054292;28;20041;-71
2024/01/22 16:07:29;;;;;;;33.75;5.32;;;;;;;;;;5054041;28;20029;-70
2024/01/22 16:10:15;;;;;;;22.65;4.95;;;;;;;;;;5056514;28;20104;-70
2024/01/22 16:13:00;;;;;;;23.77;4.13;;;;;;;;;;5041229;28;20021;-71
2024/01/22 16:15:46;;;;;;;30.00;5.63;;;;;;;;;;5054961;28;20017;-70
2024/01/22 16:18:32;;;;;;;27.08;3.90;;;;;;;;;;5055201;28;20021;-70
2024/01/22 16:21:17;;;;;;;23.92;4.38;;;;;;;;;;5054859;28;20498;-70
2024/01/22 16:24:03;;;;;;;29.90;5.65;;;;;;;;;;5057059;28;20063;-70
2024/01/22 16:26:49;;;;;;;21.13;5.22;;;;;;;;;;5068472;28;20032;-70